Accueil
METAR-TAF:

METAR-TAF

Aéroports :

Aéroport de Lugano

Lugano, Suisse

latitude: 46-00N, longitude: 008-58E, altitude: 273 m

Observation

Le bulletin a été fait il y a 31 minutes, à 07:20 UTC
Vent 2 kt de nord
Température -3°C
Humidité 100%
Pression 1026 hPa
Visibilité 10 km ou plus
pas de nuages en-dessous de 1500 mètres et pas de cumulonimbus.

METAR: LSZA 060720Z 36002KT CAVOK M03/M03 Q1026 NOSIG

Heure: 08:51 (07:51 UTC)

Prévision

Le bulletin a été fait il y a 2 heures et 26 minutes, à 05:25 UTC
Prévision valable du 06 à 06 UTC au 06 à 15 UTC
Vent 3 kt de direction variable
Visibilité 10 km ou plus
pas de nuages en-dessous de 1500 mètres et pas de cumulonimbus.

TAF: LSZA 060525Z 0606/0615 VRB03KT CAVOK

Observations et prévisions météorologiques de plus de 4000 aéroports (messages METAR et TAF).

Les stations disponibles sont représentées par des disques jaunes et rouges sur la carte.

Passer la souris dessus pour voir le nom de la station.

Cliquer dessus pour voir les observations et prévisions météorologiques.

Pour changer de carte: cliquez sur les boutons verts avec une croix noire pour zoomer, sur le bouton vert avec un tiret pour effectuer un zoom arrière, ou sur les flèches vertes pour les cartes adjacentes.


METAR-TAF: